sensor_id;sensor_type;location;lat;lon;timestamp;temperature;humidity
4922;DHT22;16625;53.624;10.106;2023-08-17T00:02:23;17.70;1.00
4922;DHT22;16625;53.624;10.106;2023-08-17T00:04:50;17.20;1.00
4922;DHT22;16625;53.624;10.106;2023-08-17T00:07:17;16.90;1.00
4922;DHT22;16625;53.624;10.106;2023-08-17T00:09:44;17.70;1.00
4922;DHT22;16625;53.624;10.106;2023-08-17T00:12:12;16.80;1.00
4922;DHT22;16625;53.624;10.106;2023-08-17T00:14:39;16.80;1.00
4922;DHT22;16625;53.624;10.106;2023-08-17T00:17:07;16.80;99.90
4922;DHT22;16625;53.624;10.106;2023-08-17T00:19:36;16.80;1.00
4922;DHT22;16625;53.624;10.106;2023-08-17T00:22:03;16.70;99.90
4922;DHT22;16625;53.624;10.106;2023-08-17T00:24:31;16.70;99.90
4922;DHT22;16625;53.624;10.106;2023-08-17T00:26:58;16.70;99.90
4922;DHT22;16625;53.624;10.106;2023-08-17T00:29:26;16.70;99.90
4922;DHT22;16625;53.624;10.106;2023-08-17T00:31:53;16.70;99.90
4922;DHT22;16625;53.624;10.106;2023-08-17T00:34:22;17.10;99.90
4922;DHT22;16625;53.624;10.106;2023-08-17T00:36:49;16.70;99.90
4922;DHT22;16625;53.624;10.106;2023-08-17T00:39:15;16.70;99.90
4922;DHT22;16625;53.624;10.106;2023-08-17T00:41:42;16.60;1.00
4922;DHT22;16625;53.624;10.106;2023-08-17T00:44:10;16.80;1.00
4922;DHT22;16625;53.624;10.106;2023-08-17T00:46:38;17.80;1.00
4922;DHT22;16625;53.624;10.106;2023-08-17T00:49:05;16.60;1.00
4922;DHT22;16625;53.624;10.106;2023-08-17T00:51:34;16.50;1.00
4922;DHT22;16625;53.624;10.106;2023-08-17T00:54:02;16.50;1.00
4922;DHT22;16625;53.624;10.106;2023-08-17T00:56:29;16.50;1.00
4922;DHT22;16625;53.624;10.106;2023-08-17T00:58:58;16.50;1.00
4922;DHT22;16625;53.624;10.106;2023-08-17T01:01:25;16.50;1.00
4922;DHT22;16625;53.624;10.106;2023-08-17T01:03:52;16.50;1.00
4922;DHT22;16625;53.624;10.106;2023-08-17T01:06:19;16.40;1.00
4922;DHT22;16625;53.624;10.106;2023-08-17T01:08:47;16.70;1.00
4922;DHT22;16625;53.624;10.106;2023-08-17T01:11:22;16.60;1.00
4922;DHT22;16625;53.624;10.106;2023-08-17T01:13:55;16.50;1.00
4922;DHT22;16625;53.624;10.106;2023-08-17T01:16:26;17.60;1.00
4922;DHT22;16625;53.624;10.106;2023-08-17T01:18:54;16.50;1.00
4922;DHT22;16625;53.624;10.106;2023-08-17T01:21:24;16.50;1.00
4922;DHT22;16625;53.624;10.106;2023-08-17T01:23:57;16.50;1.00
4922;DHT22;16625;53.624;10.106;2023-08-17T01:26:25;16.70;1.00
4922;DHT22;16625;53.624;10.106;2023-08-17T01:28:52;17.00;1.00
4922;DHT22;16625;53.624;10.106;2023-08-17T01:31:24;16.40;1.00
4922;DHT22;16625;53.624;10.106;2023-08-17T01:34:02;16.40;1.00
4922;DHT22;16625;53.624;10.106;2023-08-17T01:36:35;16.50;1.00
4922;DHT22;16625;53.624;10.106;2023-08-17T01:39:05;16.40;1.00
4922;DHT22;16625;53.624;10.106;2023-08-17T01:41:34;16.50;1.00
4922;DHT22;16625;53.624;10.106;2023-08-17T01:44:01;16.40;1.00
4922;DHT22;16625;53.624;10.106;2023-08-17T01:46:31;16.40;1.00
4922;DHT22;16625;53.624;10.106;2023-08-17T01:49:01;16.50;1.00
4922;DHT22;16625;53.624;10.106;2023-08-17T01:51:29;16.70;1.00
4922;DHT22;16625;53.624;10.106;2023-08-17T01:53:56;16.60;1.00
4922;DHT22;16625;53.624;10.106;2023-08-17T01:56:25;16.60;1.00
4922;DHT22;16625;53.624;10.106;2023-08-17T01:58:55;16.60;1.00
4922;DHT22;16625;53.624;10.106;2023-08-17T02:01:22;16.80;1.00
4922;DHT22;16625;53.624;10.106;2023-08-17T02:03:48;16.80;99.90
4922;DHT22;16625;53.624;10.106;2023-08-17T02:06:15;16.60;99.90
4922;DHT22;16625;53.624;10.106;2023-08-17T02:08:43;16.60;99.90
4922;DHT22;16625;53.624;10.106;2023-08-17T02:11:10;16.60;99.90
4922;DHT22;16625;53.624;10.106;2023-08-17T02:13:42;16.70;99.90
4922;DHT22;16625;53.624;10.106;2023-08-17T02:16:08;16.70;99.90
4922;DHT22;16625;53.624;10.106;2023-08-17T02:18:35;16.70;99.90
4922;DHT22;16625;53.624;10.106;2023-08-17T02:21:04;16.70;99.90
4922;DHT22;16625;53.624;10.106;2023-08-17T02:23:31;16.60;99.90
4922;DHT22;16625;53.624;10.106;2023-08-17T02:25:58;16.70;99.90
4922;DHT22;16625;53.624;10.106;2023-08-17T02:28:25;16.70;99.90
4922;DHT22;16625;53.624;10.106;2023-08-17T02:30:56;16.70;99.90
4922;DHT22;16625;53.624;10.106;2023-08-17T02:33:23;16.60;99.90
4922;DHT22;16625;53.624;10.106;2023-08-17T02:35:51;16.60;1.00
4922;DHT22;16625;53.624;10.106;2023-08-17T02:38:18;17.20;1.00
4922;DHT22;16625;53.624;10.106;2023-08-17T02:40:45;17.10;1.00
4922;DHT22;16625;53.624;10.106;2023-08-17T02:43:12;17.10;1.00
4922;DHT22;16625;53.624;10.106;2023-08-17T02:45:40;16.50;1.00
4922;DHT22;16625;53.624;10.106;2023-08-17T02:48:08;16.50;1.00
4922;DHT22;16625;53.624;10.106;2023-08-17T02:50:35;16.50;1.00
4922;DHT22;16625;53.624;10.106;2023-08-17T02:53:02;16.50;1.00
4922;DHT22;16625;53.624;10.106;2023-08-17T02:55:31;16.50;1.00
4922;DHT22;16625;53.624;10.106;2023-08-17T02:57:58;17.30;1.00
4922;DHT22;16625;53.624;10.106;2023-08-17T03:00:25;16.50;1.00
4922;DHT22;16625;53.624;10.106;2023-08-17T03:02:52;16.40;5.70
4922;DHT22;16625;53.624;10.106;2023-08-17T03:05:23;17.10;48.60
4922;DHT22;16625;53.624;10.106;2023-08-17T03:07:51;16.40;72.90
4922;DHT22;16625;53.624;10.106;2023-08-17T03:10:18;16.40;95.60
4922;DHT22;16625;53.624;10.106;2023-08-17T03:12:45;16.40;99.60
4922;DHT22;16625;53.624;10.106;2023-08-17T03:15:12;16.30;99.90
4922;DHT22;16625;53.624;10.106;2023-08-17T03:17:39;16.30;99.90
4922;DHT22;16625;53.624;10.106;2023-08-17T03:20:08;16.30;99.90
4922;DHT22;16625;53.624;10.106;2023-08-17T03:22:36;16.30;99.90
4922;DHT22;16625;53.624;10.106;2023-08-17T03:25:03;16.50;99.90
4922;DHT22;16625;53.624;10.106;2023-08-17T03:27:30;16.30;99.90
4922;DHT22;16625;53.624;10.106;2023-08-17T03:29:58;16.40;99.90
4922;DHT22;16625;53.624;10.106;2023-08-17T03:32:25;16.30;99.90
4922;DHT22;16625;53.624;10.106;2023-08-17T03:34:55;17.00;99.90
4922;DHT22;16625;53.624;10.106;2023-08-17T03:37:22;17.20;99.90
4922;DHT22;16625;53.624;10.106;2023-08-17T03:39:52;17.30;99.90
4922;DHT22;16625;53.624;10.106;2023-08-17T03:42:21;16.50;99.90
4922;DHT22;16625;53.624;10.106;2023-08-17T03:44:47;16.40;99.90
4922;DHT22;16625;53.624;10.106;2023-08-17T03:47:16;16.40;99.90
4922;DHT22;16625;53.624;10.106;2023-08-17T03:49:45;16.50;99.90
4922;DHT22;16625;53.624;10.106;2023-08-17T03:52:12;16.60;99.90
4922;DHT22;16625;53.624;10.106;2023-08-17T03:54:39;16.50;99.90
4922;DHT22;16625;53.624;10.106;2023-08-17T03:57:08;16.50;99.90
4922;DHT22;16625;53.624;10.106;2023-08-17T03:59:35;16.50;99.90
4922;DHT22;16625;53.624;10.106;2023-08-17T04:02:03;16.50;99.90
4922;DHT22;16625;53.624;10.106;2023-08-17T04:04:31;16.50;99.90
4922;DHT22;16625;53.624;10.106;2023-08-17T04:06:58;16.50;99.90
4922;DHT22;16625;53.624;10.106;2023-08-17T04:09:25;16.90;99.90
4922;DHT22;16625;53.624;10.106;2023-08-17T04:11:52;16.50;99.90
4922;DHT22;16625;53.624;10.106;2023-08-17T04:14:21;16.50;99.90
4922;DHT22;16625;53.624;10.106;2023-08-17T04:16:49;16.60;99.90
4922;DHT22;16625;53.624;10.106;2023-08-17T04:19:19;16.60;99.90
4922;DHT22;16625;53.624;10.106;2023-08-17T04:21:48;16.60;99.90
4922;DHT22;16625;53.624;10.106;2023-08-17T04:24:16;16.60;99.90
4922;DHT22;16625;53.624;10.106;2023-08-17T04:26:43;16.60;99.90
4922;DHT22;16625;53.624;10.106;2023-08-17T04:29:12;16.60;99.90
4922;DHT22;16625;53.624;10.106;2023-08-17T04:31:41;16.50;99.90
4922;DHT22;16625;53.624;10.106;2023-08-17T04:34:08;16.70;99.90
4922;DHT22;16625;53.624;10.106;2023-08-17T04:36:37;17.30;99.90
4922;DHT22;16625;53.624;10.106;2023-08-17T04:39:05;16.50;99.90
4922;DHT22;16625;53.624;10.106;2023-08-17T04:41:32;16.60;99.90
4922;DHT22;16625;53.624;10.106;2023-08-17T04:43:59;16.60;99.90
4922;DHT22;16625;53.624;10.106;2023-08-17T04:46:26;16.60;99.90
4922;DHT22;16625;53.624;10.106;2023-08-17T04:48:54;16.90;99.90
4922;DHT22;16625;53.624;10.106;2023-08-17T04:51:22;16.50;99.90
4922;DHT22;16625;53.624;10.106;2023-08-17T04:53:49;16.60;99.90
4922;DHT22;16625;53.624;10.106;2023-08-17T04:56:17;16.70;99.90
4922;DHT22;16625;53.624;10.106;2023-08-17T04:58:44;16.60;99.90
4922;DHT22;16625;53.624;10.106;2023-08-17T05:01:11;16.60;99.90
4922;DHT22;16625;53.624;10.106;2023-08-17T05:03:38;17.00;99.90
4922;DHT22;16625;53.624;10.106;2023-08-17T05:06:07;16.60;99.90
4922;DHT22;16625;53.624;10.106;2023-08-17T05:08:34;17.00;99.90
4922;DHT22;16625;53.624;10.106;2023-08-17T05:11:02;16.80;99.90
4922;DHT22;16625;53.624;10.106;2023-08-17T05:13:29;16.70;99.90
4922;DHT22;16625;53.624;10.106;2023-08-17T05:15:56;16.80;99.90
4922;DHT22;16625;53.624;10.106;2023-08-17T05:18:24;16.60;99.90
4922;DHT22;16625;53.624;10.106;2023-08-17T05:20:51;16.70;99.90
4922;DHT22;16625;53.624;10.106;2023-08-17T05:23:23;16.70;99.90
4922;DHT22;16625;53.624;10.106;2023-08-17T05:25:50;17.50;99.90
4922;DHT22;16625;53.624;10.106;2023-08-17T05:28:20;16.60;99.90
4922;DHT22;16625;53.624;10.106;2023-08-17T05:30:50;16.70;99.90
4922;DHT22;16625;53.624;10.106;2023-08-17T05:33:19;16.70;99.90
4922;DHT22;16625;53.624;10.106;2023-08-17T05:35:46;16.70;99.90
4922;DHT22;16625;53.624;10.106;2023-08-17T05:38:14;16.70;99.90
4922;DHT22;16625;53.624;10.106;2023-08-17T05:40:42;16.60;99.90
4922;DHT22;16625;53.624;10.106;2023-08-17T05:43:09;16.60;99.90
4922;DHT22;16625;53.624;10.106;2023-08-17T05:45:36;16.60;99.90
4922;DHT22;16625;53.624;10.106;2023-08-17T05:48:04;16.50;99.90
4922;DHT22;16625;53.624;10.106;2023-08-17T05:50:32;16.50;99.90
4922;DHT22;16625;53.624;10.106;2023-08-17T05:52:59;16.50;99.90
4922;DHT22;16625;53.624;10.106;2023-08-17T05:55:26;16.50;99.90
4922;DHT22;16625;53.624;10.106;2023-08-17T05:57:54;16.90;99.90
4922;DHT22;16625;53.624;10.106;2023-08-17T06:00:22;16.50;99.90
4922;DHT22;16625;53.624;10.106;2023-08-17T06:02:49;16.80;99.90
4922;DHT22;16625;53.624;10.106;2023-08-17T06:05:17;16.40;99.90
4922;DHT22;16625;53.624;10.106;2023-08-17T06:07:44;16.60;99.90
4922;DHT22;16625;53.624;10.106;2023-08-17T06:10:12;16.60;99.90
4922;DHT22;16625;53.624;10.106;2023-08-17T06:12:38;16.50;99.90
4922;DHT22;16625;53.624;10.106;2023-08-17T06:15:09;17.10;99.90
4922;DHT22;16625;53.624;10.106;2023-08-17T06:17:36;16.40;99.90
4922;DHT22;16625;53.624;10.106;2023-08-17T06:20:07;16.90;99.90
4922;DHT22;16625;53.624;10.106;2023-08-17T06:22:35;16.30;99.90
4922;DHT22;16625;53.624;10.106;2023-08-17T06:25:02;16.30;99.90
4922;DHT22;16625;53.624;10.106;2023-08-17T06:27:31;16.30;99.90
4922;DHT22;16625;53.624;10.106;2023-08-17T06:29:59;16.30;99.90
4922;DHT22;16625;53.624;10.106;2023-08-17T06:32:29;16.30;99.90
4922;DHT22;16625;53.624;10.106;2023-08-17T06:34:56;16.20;99.90
4922;DHT22;16625;53.624;10.106;2023-08-17T06:37:23;16.30;99.90
4922;DHT22;16625;53.624;10.106;2023-08-17T06:39:50;16.80;99.90
4922;DHT22;16625;53.624;10.106;2023-08-17T06:42:18;16.20;99.90
4922;DHT22;16625;53.624;10.106;2023-08-17T06:44:44;16.20;99.90
4922;DHT22;16625;53.624;10.106;2023-08-17T06:47:12;16.60;99.90
4922;DHT22;16625;53.624;10.106;2023-08-17T06:49:40;16.60;99.90
4922;DHT22;16625;53.624;10.106;2023-08-17T06:52:08;16.10;99.90
4922;DHT22;16625;53.624;10.106;2023-08-17T06:54:35;16.10;99.90
4922;DHT22;16625;53.624;10.106;2023-08-17T06:57:03;16.10;99.90
4922;DHT22;16625;53.624;10.106;2023-08-17T06:59:30;16.10;99.90
4922;DHT22;16625;53.624;10.106;2023-08-17T07:01:58;16.00;99.90
4922;DHT22;16625;53.624;10.106;2023-08-17T07:04:25;16.20;99.90
4922;DHT22;16625;53.624;10.106;2023-08-17T07:06:54;16.40;99.90
4922;DHT22;16625;53.624;10.106;2023-08-17T07:09:23;16.10;99.90
4922;DHT22;16625;53.624;10.106;2023-08-17T07:11:50;16.10;99.90
4922;DHT22;16625;53.624;10.106;2023-08-17T07:14:19;16.90;99.90
4922;DHT22;16625;53.624;10.106;2023-08-17T07:16:46;16.20;99.90
4922;DHT22;16625;53.624;10.106;2023-08-17T07:19:14;16.60;99.90
4922;DHT22;16625;53.624;10.106;2023-08-17T07:21:41;16.30;99.90
4922;DHT22;16625;53.624;10.106;2023-08-17T07:24:17;16.70;99.90
4922;DHT22;16625;53.624;10.106;2023-08-17T07:26:45;16.40;99.90
4922;DHT22;16625;53.624;10.106;2023-08-17T07:29:12;16.30;99.90
4922;DHT22;16625;53.624;10.106;2023-08-17T07:31:39;16.90;99.90
4922;DHT22;16625;53.624;10.106;2023-08-17T07:34:06;16.40;99.90
4922;DHT22;16625;53.624;10.106;2023-08-17T07:36:33;16.40;99.90
4922;DHT22;16625;53.624;10.106;2023-08-17T07:39:00;16.80;99.90
4922;DHT22;16625;53.624;10.106;2023-08-17T07:41:29;16.50;99.90
4922;DHT22;16625;53.624;10.106;2023-08-17T07:43:56;16.50;99.90
4922;DHT22;16625;53.624;10.106;2023-08-17T07:46:23;16.50;99.90
4922;DHT22;16625;53.624;10.106;2023-08-17T07:48:50;16.70;99.90
4922;DHT22;16625;53.624;10.106;2023-08-17T07:51:17;16.60;99.90
4922;DHT22;16625;53.624;10.106;2023-08-17T07:53:44;17.30;99.90
4922;DHT22;16625;53.624;10.106;2023-08-17T07:56:11;16.90;99.90
4922;DHT22;16625;53.624;10.106;2023-08-17T07:58:41;16.80;99.90
4922;DHT22;16625;53.624;10.106;2023-08-17T08:01:11;16.80;99.90
4922;DHT22;16625;53.624;10.106;2023-08-17T08:03:38;16.90;99.90
4922;DHT22;16625;53.624;10.106;2023-08-17T08:06:05;16.90;99.90
4922;DHT22;16625;53.624;10.106;2023-08-17T08:08:32;16.90;99.90
4922;DHT22;16625;53.624;10.106;2023-08-17T08:10:59;16.90;99.90
4922;DHT22;16625;53.624;10.106;2023-08-17T08:13:26;16.90;99.90
4922;DHT22;16625;53.624;10.106;2023-08-17T08:15:55;16.90;99.90
4922;DHT22;16625;53.624;10.106;2023-08-17T08:18:25;16.90;99.90
4922;DHT22;16625;53.624;10.106;2023-08-17T08:20:52;16.80;99.90
4922;DHT22;16625;53.624;10.106;2023-08-17T08:23:19;16.90;99.90
4922;DHT22;16625;53.624;10.106;2023-08-17T08:25:48;16.80;99.90
4922;DHT22;16625;53.624;10.106;2023-08-17T08:28:15;16.70;99.90
4922;DHT22;16625;53.624;10.106;2023-08-17T08:30:42;16.70;99.90
4922;DHT22;16625;53.624;10.106;2023-08-17T08:33:12;16.70;99.90
4922;DHT22;16625;53.624;10.106;2023-08-17T08:35:39;16.80;99.90
4922;DHT22;16625;53.624;10.106;2023-08-17T08:38:06;16.90;99.90
4922;DHT22;16625;53.624;10.106;2023-08-17T08:40:33;16.80;99.90
4922;DHT22;16625;53.624;10.106;2023-08-17T08:43:03;17.20;99.90
4922;DHT22;16625;53.624;10.106;2023-08-17T08:45:31;17.20;99.90
4922;DHT22;16625;53.624;10.106;2023-08-17T08:48:00;17.10;99.90
4922;DHT22;16625;53.624;10.106;2023-08-17T08:50:31;17.10;99.90
4922;DHT22;16625;53.624;10.106;2023-08-17T08:52:59;17.10;99.90
4922;DHT22;16625;53.624;10.106;2023-08-17T08:55:30;17.00;99.90
4922;DHT22;16625;53.624;10.106;2023-08-17T08:57:58;17.00;99.90
4922;DHT22;16625;53.624;10.106;2023-08-17T09:00:28;16.90;99.90
4922;DHT22;16625;53.624;10.106;2023-08-17T09:02:56;17.00;99.90
4922;DHT22;16625;53.624;10.106;2023-08-17T09:05:25;17.00;99.90
4922;DHT22;16625;53.624;10.106;2023-08-17T09:07:54;17.10;99.90
4922;DHT22;16625;53.624;10.106;2023-08-17T09:10:22;17.10;99.90
4922;DHT22;16625;53.624;10.106;2023-08-17T09:12:51;17.20;99.90
4922;DHT22;16625;53.624;10.106;2023-08-17T09:15:18;17.10;99.90
4922;DHT22;16625;53.624;10.106;2023-08-17T09:17:47;17.20;99.90
4922;DHT22;16625;53.624;10.106;2023-08-17T09:20:36;17.10;99.90
4922;DHT22;16625;53.624;10.106;2023-08-17T09:23:10;17.20;99.90
4922;DHT22;16625;53.624;10.106;2023-08-17T09:25:39;17.30;99.90
4922;DHT22;16625;53.624;10.106;2023-08-17T09:28:10;17.20;99.90
4922;DHT22;16625;53.624;10.106;2023-08-17T09:30:55;17.60;99.90
4922;DHT22;16625;53.624;10.106;2023-08-17T09:33:23;17.30;99.90
4922;DHT22;16625;53.624;10.106;2023-08-17T09:35:50;17.30;99.90
4922;DHT22;16625;53.624;10.106;2023-08-17T09:38:19;17.50;99.90
4922;DHT22;16625;53.624;10.106;2023-08-17T09:40:46;17.80;99.90
4922;DHT22;16625;53.624;10.106;2023-08-17T09:43:14;17.40;99.90
4922;DHT22;16625;53.624;10.106;2023-08-17T09:45:43;17.50;99.90
4922;DHT22;16625;53.624;10.106;2023-08-17T09:48:14;17.40;99.90
4922;DHT22;16625;53.624;10.106;2023-08-17T09:50:42;17.40;99.90
4922;DHT22;16625;53.624;10.106;2023-08-17T09:53:12;18.50;99.90
4922;DHT22;16625;53.624;10.106;2023-08-17T09:55:46;17.40;99.90
4922;DHT22;16625;53.624;10.106;2023-08-17T09:58:14;17.40;99.90
4922;DHT22;16625;53.624;10.106;2023-08-17T10:00:44;17.40;99.90
4922;DHT22;16625;53.624;10.106;2023-08-17T10:03:14;17.40;99.90
4922;DHT22;16625;53.624;10.106;2023-08-17T10:05:43;17.60;99.90
4922;DHT22;16625;53.624;10.106;2023-08-17T10:08:10;17.40;99.90
4922;DHT22;16625;53.624;10.106;2023-08-17T10:10:42;17.70;99.90
4922;DHT22;16625;53.624;10.106;2023-08-17T10:13:11;17.90;99.90
4922;DHT22;16625;53.624;10.106;2023-08-17T10:15:47;17.60;99.90
4922;DHT22;16625;53.624;10.106;2023-08-17T10:18:27;17.60;99.90
4922;DHT22;16625;53.624;10.106;2023-08-17T10:21:00;17.50;99.90
4922;DHT22;16625;53.624;10.106;2023-08-17T10:23:31;17.50;99.90
4922;DHT22;16625;53.624;10.106;2023-08-17T10:26:00;17.60;99.90
4922;DHT22;16625;53.624;10.106;2023-08-17T10:28:31;17.80;99.90
4922;DHT22;16625;53.624;10.106;2023-08-17T10:30:59;17.50;99.90
4922;DHT22;16625;53.624;10.106;2023-08-17T10:33:27;17.50;99.90
4922;DHT22;16625;53.624;10.106;2023-08-17T10:35:54;17.80;99.90
4922;DHT22;16625;53.624;10.106;2023-08-17T10:38:21;17.50;99.90
4922;DHT22;16625;53.624;10.106;2023-08-17T10:41:08;17.20;99.90
4922;DHT22;16625;53.624;10.106;2023-08-17T10:43:53;17.00;99.90
4922;DHT22;16625;53.624;10.106;2023-08-17T10:46:20;17.10;99.90
4922;DHT22;16625;53.624;10.106;2023-08-17T10:48:48;16.90;99.90
4922;DHT22;16625;53.624;10.106;2023-08-17T10:51:15;17.10;99.90
4922;DHT22;16625;53.624;10.106;2023-08-17T10:53:43;16.80;99.90
4922;DHT22;16625;53.624;10.106;2023-08-17T10:56:11;17.50;99.90
4922;DHT22;16625;53.624;10.106;2023-08-17T10:58:42;16.70;99.90
4922;DHT22;16625;53.624;10.106;2023-08-17T11:01:09;17.00;99.90
4922;DHT22;16625;53.624;10.106;2023-08-17T11:03:36;16.30;99.90
4922;DHT22;16625;53.624;10.106;2023-08-17T11:06:15;16.60;99.90
4922;DHT22;16625;53.624;10.106;2023-08-17T11:08:54;16.20;99.90
4922;DHT22;16625;53.624;10.106;2023-08-17T11:11:22;16.00;99.90
4922;DHT22;16625;53.624;10.106;2023-08-17T11:13:53;16.10;99.90
4922;DHT22;16625;53.624;10.106;2023-08-17T11:16:20;16.20;99.90
4922;DHT22;16625;53.624;10.106;2023-08-17T11:18:48;15.70;99.90
4922;DHT22;16625;53.624;10.106;2023-08-17T11:21:16;15.70;99.90
4922;DHT22;16625;53.624;10.106;2023-08-17T11:23:43;15.70;99.90
4922;DHT22;16625;53.624;10.106;2023-08-17T11:26:10;15.80;99.90
4922;DHT22;16625;53.624;10.106;2023-08-17T11:28:39;16.40;99.90
4922;DHT22;16625;53.624;10.106;2023-08-17T11:31:13;16.00;99.90
4922;DHT22;16625;53.624;10.106;2023-08-17T11:33:41;15.80;99.90
4922;DHT22;16625;53.624;10.106;2023-08-17T11:36:08;15.90;99.90
4922;DHT22;16625;53.624;10.106;2023-08-17T11:38:41;16.10;99.90
4922;DHT22;16625;53.624;10.106;2023-08-17T11:41:09;15.90;99.90
4922;DHT22;16625;53.624;10.106;2023-08-17T11:43:40;16.00;99.90
4922;DHT22;16625;53.624;10.106;2023-08-17T11:46:07;16.10;99.90
4922;DHT22;16625;53.624;10.106;2023-08-17T11:48:36;16.40;99.90
4922;DHT22;16625;53.624;10.106;2023-08-17T11:51:04;16.60;99.90
4922;DHT22;16625;53.624;10.106;2023-08-17T11:53:35;16.60;99.90
4922;DHT22;16625;53.624;10.106;2023-08-17T11:56:05;16.80;99.90
4922;DHT22;16625;53.624;10.106;2023-08-17T11:58:42;17.10;99.90
4922;DHT22;16625;53.624;10.106;2023-08-17T12:01:10;16.80;99.90
4922;DHT22;16625;53.624;10.106;2023-08-17T12:03:40;16.90;99.90
4922;DHT22;16625;53.624;10.106;2023-08-17T12:06:07;17.30;99.90
4922;DHT22;16625;53.624;10.106;2023-08-17T12:08:34;17.60;99.90
4922;DHT22;16625;53.624;10.106;2023-08-17T12:11:02;16.80;99.90
4922;DHT22;16625;53.624;10.106;2023-08-17T12:13:31;16.80;99.90
4922;DHT22;16625;53.624;10.106;2023-08-17T12:15:59;17.20;99.90
4922;DHT22;16625;53.624;10.106;2023-08-17T12:18:26;17.50;99.90
4922;DHT22;16625;53.624;10.106;2023-08-17T12:20:54;16.90;99.90
4922;DHT22;16625;53.624;10.106;2023-08-17T12:23:21;17.20;99.90
4922;DHT22;16625;53.624;10.106;2023-08-17T12:25:53;16.90;99.90
4922;DHT22;16625;53.624;10.106;2023-08-17T12:28:21;17.10;99.90
4922;DHT22;16625;53.624;10.106;2023-08-17T12:30:57;17.00;99.90
4922;DHT22;16625;53.624;10.106;2023-08-17T12:33:24;17.00;99.90
4922;DHT22;16625;53.624;10.106;2023-08-17T12:35:51;17.50;99.90
4922;DHT22;16625;53.624;10.106;2023-08-17T12:38:19;17.10;99.90
4922;DHT22;16625;53.624;10.106;2023-08-17T12:40:46;17.00;99.90
4922;DHT22;16625;53.624;10.106;2023-08-17T12:43:13;17.20;99.90
4922;DHT22;16625;53.624;10.106;2023-08-17T12:45:40;17.30;99.90
4922;DHT22;16625;53.624;10.106;2023-08-17T12:48:07;17.30;99.90
4922;DHT22;16625;53.624;10.106;2023-08-17T12:50:36;17.90;99.90
4922;DHT22;16625;53.624;10.106;2023-08-17T12:53:03;17.40;99.90
4922;DHT22;16625;53.624;10.106;2023-08-17T12:55:32;17.50;99.90
4922;DHT22;16625;53.624;10.106;2023-08-17T12:57:59;17.90;99.90
4922;DHT22;16625;53.624;10.106;2023-08-17T13:00:25;17.40;99.90
4922;DHT22;16625;53.624;10.106;2023-08-17T13:02:52;17.40;99.90
4922;DHT22;16625;53.624;10.106;2023-08-17T13:05:19;18.30;99.90
4922;DHT22;16625;53.624;10.106;2023-08-17T13:07:46;17.30;99.90
4922;DHT22;16625;53.624;10.106;2023-08-17T13:10:13;17.30;99.90
4922;DHT22;16625;53.624;10.106;2023-08-17T13:12:42;17.30;99.90
4922;DHT22;16625;53.624;10.106;2023-08-17T13:15:09;17.30;99.90
4922;DHT22;16625;53.624;10.106;2023-08-17T13:17:36;17.30;99.90
4922;DHT22;16625;53.624;10.106;2023-08-17T13:20:03;17.10;99.90
4922;DHT22;16625;53.624;10.106;2023-08-17T13:22:31;17.00;99.90
4922;DHT22;16625;53.624;10.106;2023-08-17T13:24:58;16.80;99.90
4922;DHT22;16625;53.624;10.106;2023-08-17T13:27:26;16.70;99.90
4922;DHT22;16625;53.624;10.106;2023-08-17T13:29:55;17.00;99.90
4922;DHT22;16625;53.624;10.106;2023-08-17T13:32:24;16.40;99.90
4922;DHT22;16625;53.624;10.106;2023-08-17T13:34:51;16.80;99.90
4922;DHT22;16625;53.624;10.106;2023-08-17T13:37:18;16.80;99.90
4922;DHT22;16625;53.624;10.106;2023-08-17T13:39:46;16.10;99.90
4922;DHT22;16625;53.624;10.106;2023-08-17T13:42:13;16.50;99.90
4922;DHT22;16625;53.624;10.106;2023-08-17T13:44:39;17.10;99.90
4922;DHT22;16625;53.624;10.106;2023-08-17T13:47:08;16.30;99.90
4922;DHT22;16625;53.624;10.106;2023-08-17T13:49:35;17.30;99.90
4922;DHT22;16625;53.624;10.106;2023-08-17T13:52:02;16.80;99.90
4922;DHT22;16625;53.624;10.106;2023-08-17T13:54:29;16.50;99.90
4922;DHT22;16625;53.624;10.106;2023-08-17T13:56:55;16.80;99.90
4922;DHT22;16625;53.624;10.106;2023-08-17T13:59:22;17.40;99.90
4922;DHT22;16625;53.624;10.106;2023-08-17T14:01:49;17.60;99.90
4922;DHT22;16625;53.624;10.106;2023-08-17T14:04:17;17.30;99.90
4922;DHT22;16625;53.624;10.106;2023-08-17T14:06:44;17.20;99.90
4922;DHT22;16625;53.624;10.106;2023-08-17T14:09:11;17.40;99.90
4922;DHT22;16625;53.624;10.106;2023-08-17T14:11:38;17.30;99.90
4922;DHT22;16625;53.624;10.106;2023-08-17T14:14:05;17.70;99.90
4922;DHT22;16625;53.624;10.106;2023-08-17T14:16:32;17.70;99.90
4922;DHT22;16625;53.624;10.106;2023-08-17T14:18:59;17.90;99.90
4922;DHT22;16625;53.624;10.106;2023-08-17T14:21:27;18.50;99.90
4922;DHT22;16625;53.624;10.106;2023-08-17T14:23:54;18.10;99.90
4922;DHT22;16625;53.624;10.106;2023-08-17T14:26:21;18.20;99.90
4922;DHT22;16625;53.624;10.106;2023-08-17T14:28:48;17.90;99.90
4922;DHT22;16625;53.624;10.106;2023-08-17T14:31:14;18.60;99.90
4922;DHT22;16625;53.624;10.106;2023-08-17T14:33:44;17.80;99.90
4922;DHT22;16625;53.624;10.106;2023-08-17T14:36:13;17.80;99.90
4922;DHT22;16625;53.624;10.106;2023-08-17T14:38:41;17.80;99.90
4922;DHT22;16625;53.624;10.106;2023-08-17T14:41:08;18.20;99.90
4922;DHT22;16625;53.624;10.106;2023-08-17T14:43:35;18.20;99.90
4922;DHT22;16625;53.624;10.106;2023-08-17T14:46:02;17.40;99.90
4922;DHT22;16625;53.624;10.106;2023-08-17T14:48:29;17.30;99.90
4922;DHT22;16625;53.624;10.106;2023-08-17T14:50:56;17.30;99.90
4922;DHT22;16625;53.624;10.106;2023-08-17T14:53:22;17.10;99.90
4922;DHT22;16625;53.624;10.106;2023-08-17T14:55:51;17.10;99.90
4922;DHT22;16625;53.624;10.106;2023-08-17T14:58:17;17.10;99.90
4922;DHT22;16625;53.624;10.106;2023-08-17T15:00:44;16.90;99.90
4922;DHT22;16625;53.624;10.106;2023-08-17T15:03:11;16.90;99.90
4922;DHT22;16625;53.624;10.106;2023-08-17T15:05:38;16.90;99.90
4922;DHT22;16625;53.624;10.106;2023-08-17T15:08:05;17.00;99.90
4922;DHT22;16625;53.624;10.106;2023-08-17T15:10:32;17.50;99.90
4922;DHT22;16625;53.624;10.106;2023-08-17T15:13:02;16.90;99.90
4922;DHT22;16625;53.624;10.106;2023-08-17T15:15:29;16.80;99.90
4922;DHT22;16625;53.624;10.106;2023-08-17T15:17:56;17.20;99.90
4922;DHT22;16625;53.624;10.106;2023-08-17T15:20:22;16.80;99.90
4922;DHT22;16625;53.624;10.106;2023-08-17T15:22:49;16.80;99.90
4922;DHT22;16625;53.624;10.106;2023-08-17T15:25:16;16.90;99.90
4922;DHT22;16625;53.624;10.106;2023-08-17T15:27:43;16.70;99.90
4922;DHT22;16625;53.624;10.106;2023-08-17T15:30:13;16.70;99.90
4922;DHT22;16625;53.624;10.106;2023-08-17T15:32:40;16.80;99.90
4922;DHT22;16625;53.624;10.106;2023-08-17T15:35:09;17.20;99.90
4922;DHT22;16625;53.624;10.106;2023-08-17T15:37:36;16.70;99.90
4922;DHT22;16625;53.624;10.106;2023-08-17T15:40:04;16.90;99.90